Archival Weather

Chicago O'Hare International

Chicago, Illinois (KORD)

Report from: Wednesday, February 16, 2022 2:51 AM CST
Current time: Saturday, February 4, 2023 10:38 PM CST

Current weather
Weather history
Weather forecast

Temperature8.3°C (46.9°F)
Wind chill4.5°C (40.2°F)
Dew point0.0°C (32.0°F)
Winds 15 kts (7.7 m/s, 17.3 mph) South (190°)
Wind gusts 23 kts (11.8 m/s, 26.5 mph)
Peak wind 29 kts (14.9 m/s, 33.4 mph) South (180°) at 01:53
Visibility10 mi. (16.1 km)
Clouds Ceiling: Overcast 25,000 ft. (7,620 m)
Altimeter29.87 in.Hg (1012 mB)
Relative humidity56 %
Density altitude-651 ft. (-198 m)
Sea-level pressure101.2 kPa (1012 mB, 29.88 in.Hg)
Remarks Automated weather observing station with precipitation discriminator
Pressure falling more quickly
Flight conditions Visual Meteorological Conditions
Raw dataKORD 160851Z 19015G23KT 10SM OVC250 08/00 A2987 RMK AO2 PK WND 18029/0753 SLP118 T00830000 58020
An unhandled exception has occurred. See browser dev tools for details. Reload 🗙